createdAt,value
2018-05-31T00:00:50.701Z,1010.48
2018-05-31T00:01:50.729Z,1010.44
2018-05-31T00:02:50.741Z,1010.40
2018-05-31T00:03:50.779Z,1010.41
2018-05-31T00:04:50.792Z,1010.42
2018-05-31T00:05:50.818Z,1010.39
2018-05-31T00:06:50.844Z,1010.43
2018-05-31T00:07:50.870Z,1010.36
2018-05-31T00:08:50.887Z,1010.42
2018-05-31T00:09:50.910Z,1010.43
2018-05-31T00:10:50.937Z,1010.40
2018-05-31T00:11:50.964Z,1010.37
2018-05-31T00:12:50.988Z,1010.39
2018-05-31T00:13:51.013Z,1010.36
2018-05-31T00:14:51.040Z,1010.37
2018-05-31T00:15:51.053Z,1010.36
2018-05-31T00:16:51.081Z,1010.42
2018-05-31T00:17:51.105Z,1010.41
2018-05-31T00:18:51.130Z,1010.43
2018-05-31T00:19:51.170Z,1010.46
2018-05-31T00:20:51.184Z,1010.42
2018-05-31T00:21:51.209Z,1010.38
2018-05-31T00:22:51.222Z,1010.40
2018-05-31T00:23:51.249Z,1010.40
2018-05-31T00:24:51.286Z,1010.41
2018-05-31T00:25:51.301Z,1010.41
2018-05-31T00:26:51.328Z,1010.43
2018-05-31T00:27:51.352Z,1010.40
2018-05-31T00:28:51.366Z,1010.41
2018-05-31T00:29:51.391Z,1010.36
2018-05-31T00:30:51.417Z,1010.39
2018-05-31T00:31:51.442Z,1010.36
2018-05-31T00:32:51.469Z,1010.36
2018-05-31T00:33:51.494Z,1010.37
2018-05-31T00:34:51.520Z,1010.33
2018-05-31T00:35:51.533Z,1010.30
2018-05-31T00:36:51.560Z,1010.32
2018-05-31T00:37:51.585Z,1010.35
2018-05-31T00:38:51.612Z,1010.28
2018-05-31T00:39:51.641Z,1010.24
2018-05-31T00:40:51.663Z,1010.27
2018-05-31T00:41:51.676Z,1010.24
2018-05-31T00:42:51.703Z,1010.27
2018-05-31T00:43:51.729Z,1010.23
2018-05-31T00:44:51.755Z,1010.26
2018-05-31T00:45:51.783Z,1010.23
2018-05-31T00:46:51.807Z,1010.19
2018-05-31T00:47:51.820Z,1010.21
2018-05-31T00:48:51.846Z,1010.15
2018-05-31T00:49:51.872Z,1010.11
2018-05-31T00:50:51.899Z,1010.13
2018-05-31T00:51:51.924Z,1010.08
2018-05-31T00:52:51.949Z,1010.03
2018-05-31T00:53:51.964Z,1010.07
2018-05-31T00:54:52.002Z,1010.02
2018-05-31T00:55:52.015Z,1010.01
2018-05-31T00:56:52.051Z,1010.02
2018-05-31T00:57:52.067Z,1009.98
2018-05-31T00:58:52.092Z,1010.01
2018-05-31T00:59:52.107Z,1010.02
2018-05-31T01:00:52.133Z,1010.00
2018-05-31T01:01:52.161Z,1010.00
2018-05-31T01:02:52.184Z,1009.97
2018-05-31T01:03:52.210Z,1009.97
2018-05-31T01:04:52.240Z,1009.93
2018-05-31T01:05:52.249Z,1009.98
2018-05-31T01:06:52.276Z,1009.91
2018-05-31T01:07:52.302Z,1009.94
2018-05-31T01:08:52.327Z,1009.92
2018-05-31T01:09:52.352Z,1009.92
2018-05-31T01:10:52.379Z,1009.91
2018-05-31T01:11:52.400Z,1009.94
2018-05-31T01:12:52.419Z,1009.91
2018-05-31T01:13:52.445Z,1009.88
2018-05-31T01:14:52.470Z,1009.88
2018-05-31T01:15:52.496Z,1009.85
2018-05-31T01:16:52.522Z,1009.85
2018-05-31T01:17:52.535Z,1009.82
2018-05-31T01:18:52.561Z,1009.80
2018-05-31T01:19:52.599Z,1009.82
2018-05-31T01:20:52.613Z,1009.80
2018-05-31T01:21:52.642Z,1009.79
2018-05-31T01:22:52.664Z,1009.81
2018-05-31T01:23:52.679Z,1009.79
2018-05-31T01:24:52.705Z,1009.81
2018-05-31T01:25:52.730Z,1009.81
2018-05-31T01:26:52.756Z,1009.82
2018-05-31T01:27:52.783Z,1009.78
2018-05-31T01:28:52.795Z,1009.80
2018-05-31T01:29:52.821Z,1009.79
2018-05-31T01:30:52.848Z,1009.77
2018-05-31T01:31:52.872Z,1009.78
2018-05-31T01:32:52.899Z,1009.77
2018-05-31T01:33:52.924Z,1009.80
2018-05-31T01:34:52.940Z,1009.79
2018-05-31T01:35:52.965Z,1009.80
2018-05-31T01:36:52.991Z,1009.78
2018-05-31T01:37:53.017Z,1009.76
2018-05-31T01:38:53.043Z,1009.80
2018-05-31T01:39:53.055Z,1009.81
2018-05-31T01:40:53.080Z,1009.83
2018-05-31T01:41:53.107Z,1009.80
2018-05-31T01:42:53.134Z,1009.80
2018-05-31T01:43:53.159Z,1009.81
2018-05-31T01:44:53.185Z,1009.77
2018-05-31T01:45:53.198Z,1009.72
2018-05-31T01:46:53.225Z,1009.71
2018-05-31T01:47:53.251Z,1009.71
2018-05-31T01:48:53.277Z,1009.71
2018-05-31T01:49:53.303Z,1009.71
2018-05-31T01:50:53.315Z,1009.73
2018-05-31T01:51:53.342Z,1009.70
2018-05-31T01:52:53.369Z,1009.75
2018-05-31T01:53:53.392Z,1009.75
2018-05-31T01:54:53.420Z,1009.71
2018-05-31T01:55:53.433Z,1009.73
2018-05-31T01:56:53.458Z,1009.73
2018-05-31T01:57:53.485Z,1009.75
2018-05-31T01:58:53.510Z,1009.71
2018-05-31T01:59:53.539Z,1009.71
2018-05-31T02:00:53.562Z,1009.70
2018-05-31T02:01:53.576Z,1009.70
2018-05-31T02:02:53.601Z,1009.71
2018-05-31T02:03:53.628Z,1009.68
2018-05-31T02:04:53.653Z,1009.70
2018-05-31T02:05:53.680Z,1009.70
2018-05-31T02:06:53.705Z,1009.71
2018-05-31T02:07:53.720Z,1009.72
2018-05-31T02:08:53.745Z,1009.72
2018-05-31T02:09:53.772Z,1009.73
2018-05-31T02:10:53.797Z,1009.72
2018-05-31T02:11:53.824Z,1009.68
2018-05-31T02:12:53.836Z,1009.70
2018-05-31T02:13:53.875Z,1009.70
2018-05-31T02:14:53.889Z,1009.71
2018-05-31T02:15:53.913Z,1009.69
2018-05-31T02:16:53.939Z,1009.67
2018-05-31T02:17:53.955Z,1009.70
2018-05-31T02:18:53.979Z,1009.72
2018-05-31T02:19:54.006Z,1009.73
2018-05-31T02:20:54.032Z,1009.75
2018-05-31T02:21:54.061Z,1009.73
2018-05-31T02:22:54.086Z,1009.78
2018-05-31T02:23:54.098Z,1009.78
2018-05-31T02:24:54.122Z,1009.77
2018-05-31T02:25:54.148Z,1009.76
2018-05-31T02:26:54.174Z,1009.78
2018-05-31T02:27:54.200Z,1009.76
2018-05-31T02:28:54.225Z,1009.78
2018-05-31T02:29:54.239Z,1009.80
2018-05-31T02:30:54.265Z,1009.82
2018-05-31T02:31:54.292Z,1009.85
2018-05-31T02:32:54.318Z,1009.87
2018-05-31T02:33:54.331Z,1009.87
2018-05-31T02:34:54.360Z,1009.85
2018-05-31T02:35:54.382Z,1009.85
2018-05-31T02:36:54.409Z,1009.89
2018-05-31T02:37:54.434Z,1009.86
2018-05-31T02:38:54.460Z,1009.88
2018-05-31T02:39:54.474Z,1009.84
2018-05-31T02:40:54.500Z,1009.80
2018-05-31T02:41:54.525Z,1009.80
2018-05-31T02:42:54.551Z,1009.76
2018-05-31T02:43:54.580Z,1009.81
2018-05-31T02:44:54.590Z,1009.78
2018-05-31T02:45:54.615Z,1009.77
2018-05-31T02:46:54.643Z,1009.78
2018-05-31T02:47:54.669Z,1009.73
2018-05-31T02:48:54.693Z,1009.75
2018-05-31T02:49:54.709Z,1009.78
2018-05-31T02:50:54.735Z,1009.79
2018-05-31T02:51:54.759Z,1009.79
2018-05-31T02:52:54.785Z,1009.78
2018-05-31T02:53:54.811Z,1009.78
2018-05-31T02:54:54.827Z,1009.80
2018-05-31T02:55:54.850Z,1009.82
2018-05-31T02:56:54.876Z,1009.82
2018-05-31T02:57:54.902Z,1009.83
2018-05-31T02:58:54.941Z,1009.83
2018-05-31T02:59:54.941Z,1009.86
2018-05-31T03:00:54.969Z,1009.87
2018-05-31T03:01:54.993Z,1009.87
2018-05-31T03:02:55.020Z,1009.91
2018-05-31T03:03:55.046Z,1009.94
2018-05-31T03:04:55.058Z,1009.92
2018-05-31T03:05:55.097Z,1009.94
2018-05-31T03:06:55.110Z,1009.92
2018-05-31T03:07:55.137Z,1009.93
2018-05-31T03:08:55.162Z,1009.91
2018-05-31T03:09:55.177Z,1009.91
2018-05-31T03:10:55.202Z,1009.90
2018-05-31T03:11:55.228Z,1009.88
2018-05-31T03:12:55.253Z,1009.88
2018-05-31T03:13:55.280Z,1009.87
2018-05-31T03:14:55.293Z,1009.86
2018-05-31T03:15:55.320Z,1009.85
2018-05-31T03:16:55.344Z,1009.89
2018-05-31T03:17:55.371Z,1009.86
2018-05-31T03:18:55.397Z,1009.84
2018-05-31T03:19:55.418Z,1009.87
2018-05-31T03:20:55.438Z,1009.88
2018-05-31T03:21:55.462Z,1009.91
2018-05-31T03:22:55.489Z,1009.85
2018-05-31T03:23:55.502Z,1009.87
2018-05-31T03:24:55.532Z,1009.88
2018-05-31T03:25:55.553Z,1009.90
2018-05-31T03:26:55.579Z,1009.89
2018-05-31T03:27:55.617Z,1009.90
2018-05-31T03:28:55.620Z,1009.93
2018-05-31T03:29:55.648Z,1009.89
2018-05-31T03:30:55.674Z,1009.90
2018-05-31T03:31:55.697Z,1009.93
2018-05-31T03:32:55.723Z,1009.92
2018-05-31T03:33:55.737Z,1009.89
2018-05-31T03:34:55.774Z,1009.87
2018-05-31T03:35:55.789Z,1009.90
2018-05-31T03:36:55.813Z,1009.90
2018-05-31T03:37:55.839Z,1009.89
2018-05-31T03:38:55.865Z,1009.92
2018-05-31T03:39:55.882Z,1009.92
2018-05-31T03:40:55.905Z,1009.91
2018-05-31T03:41:55.932Z,1009.92
2018-05-31T03:42:55.957Z,1009.92
2018-05-31T03:43:55.970Z,1009.90
2018-05-31T03:44:55.996Z,1009.92
2018-05-31T03:45:56.023Z,1009.93
2018-05-31T03:46:56.047Z,1009.92
2018-05-31T03:47:56.073Z,1009.90
2018-05-31T03:48:56.092Z,1009.91
2018-05-31T03:49:56.113Z,1009.93
2018-05-31T03:50:56.139Z,1009.95
2018-05-31T03:51:56.165Z,1009.96
2018-05-31T03:52:56.191Z,1009.94
2018-05-31T03:53:56.205Z,1009.90
2018-05-31T03:54:56.231Z,1009.88
2018-05-31T03:55:56.257Z,1009.90
2018-05-31T03:56:56.294Z,1009.87
2018-05-31T03:57:56.307Z,1009.88
2018-05-31T03:58:56.333Z,1009.86
2018-05-31T03:59:56.348Z,1009.83
2018-05-31T04:00:56.374Z,1009.89
2018-05-31T04:01:56.399Z,1009.87
2018-05-31T04:02:56.426Z,1009.89
2018-05-31T04:03:56.465Z,1009.94
2018-05-31T04:04:56.464Z,1009.90
2018-05-31T04:05:56.490Z,1009.96
2018-05-31T04:06:56.520Z,1009.95
2018-05-31T04:07:56.544Z,1009.97
2018-05-31T04:08:56.568Z,1009.97
2018-05-31T04:09:56.594Z,1009.95
2018-05-31T04:10:56.608Z,1009.97
2018-05-31T04:11:56.634Z,1009.99
2018-05-31T04:12:56.681Z,1009.99
2018-05-31T04:13:56.687Z,1009.98
2018-05-31T04:14:56.714Z,1009.97
2018-05-31T04:15:56.725Z,1009.96
2018-05-31T04:16:56.751Z,1009.99
2018-05-31T04:17:56.776Z,1009.95
2018-05-31T04:18:56.802Z,1009.97
2018-05-31T04:19:56.829Z,1010.00
2018-05-31T04:20:56.841Z,1010.01
2018-05-31T04:21:56.871Z,1009.98
2018-05-31T04:22:56.894Z,1010.01
2018-05-31T04:23:56.920Z,1010.03
2018-05-31T04:24:56.946Z,1009.98
2018-05-31T04:25:56.971Z,1010.00
2018-05-31T04:26:56.985Z,1010.00
2018-05-31T04:27:57.010Z,1009.98
2018-05-31T04:28:57.037Z,1009.99
2018-05-31T04:29:57.075Z,1009.98
2018-05-31T04:30:57.088Z,1009.98
2018-05-31T04:31:57.114Z,1010.00
2018-05-31T04:32:57.128Z,1009.98
2018-05-31T04:33:57.158Z,1010.06
2018-05-31T04:34:57.179Z,1010.04
2018-05-31T04:35:57.206Z,1010.02
2018-05-31T04:36:57.232Z,1010.09
2018-05-31T04:37:57.257Z,1010.11
2018-05-31T04:38:57.274Z,1010.11
2018-05-31T04:39:57.297Z,1010.10
2018-05-31T04:40:57.322Z,1010.12
2018-05-31T04:41:57.361Z,1010.10
2018-05-31T04:42:57.374Z,1010.15
2018-05-31T04:43:57.401Z,1010.14
2018-05-31T04:44:57.427Z,1010.20
2018-05-31T04:45:57.442Z,1010.19
2018-05-31T04:46:57.467Z,1010.14
2018-05-31T04:47:57.493Z,1010.14
2018-05-31T04:48:57.518Z,1010.10
2018-05-31T04:49:57.546Z,1010.14
2018-05-31T04:50:57.570Z,1010.09
2018-05-31T04:51:57.583Z,1010.12
2018-05-31T04:52:57.609Z,1010.11
2018-05-31T04:53:57.634Z,1010.12
2018-05-31T04:54:57.661Z,1010.11
2018-05-31T04:55:57.687Z,1010.10
2018-05-31T04:56:57.711Z,1010.12
2018-05-31T04:57:57.739Z,1010.14
2018-05-31T04:58:57.763Z,1010.12
2018-05-31T04:59:57.778Z,1010.13
2018-05-31T05:00:57.803Z,1010.14
2018-05-31T05:01:57.829Z,1010.13
2018-05-31T05:02:57.867Z,1010.13
2018-05-31T05:03:57.881Z,1010.13
2018-05-31T05:04:57.907Z,1010.13
2018-05-31T05:05:57.933Z,1010.14
2018-05-31T05:06:57.960Z,1010.16
2018-05-31T05:07:57.973Z,1010.16
2018-05-31T05:08:57.998Z,1010.16
2018-05-31T05:09:58.023Z,1010.21
2018-05-31T05:10:58.049Z,1010.16
2018-05-31T05:11:58.075Z,1010.23
2018-05-31T05:12:58.124Z,1010.18
2018-05-31T05:13:58.128Z,1010.16
2018-05-31T05:14:58.155Z,1010.17
2018-05-31T05:15:58.178Z,1010.19
2018-05-31T05:16:58.206Z,1010.18
2018-05-31T05:17:58.223Z,1010.23
2018-05-31T05:18:58.247Z,1010.20
2018-05-31T05:19:58.271Z,1010.18
2018-05-31T05:20:58.297Z,1010.24
2018-05-31T05:21:58.324Z,1010.16
2018-05-31T05:22:58.349Z,1010.22
2018-05-31T05:23:58.378Z,1010.20
2018-05-31T05:24:58.401Z,1010.18
2018-05-31T05:25:58.426Z,1010.17
2018-05-31T05:26:58.452Z,1010.16
2018-05-31T05:27:58.478Z,1010.14
2018-05-31T05:28:58.493Z,1010.19
2018-05-31T05:29:58.518Z,1010.19
2018-05-31T05:30:58.545Z,1010.16
2018-05-31T05:31:58.570Z,1010.15
2018-05-31T05:32:58.594Z,1010.15
2018-05-31T05:33:58.622Z,1010.17
2018-05-31T05:34:58.646Z,1010.17
2018-05-31T05:35:58.672Z,1010.16
2018-05-31T05:36:58.698Z,1010.20
2018-05-31T05:37:58.725Z,1010.19
2018-05-31T05:38:58.750Z,1010.22
2018-05-31T05:39:58.776Z,1010.24
2018-05-31T05:40:58.815Z,1010.25
2018-05-31T05:41:58.829Z,1010.21
2018-05-31T05:42:58.854Z,1010.26
2018-05-31T05:43:58.880Z,1010.21
2018-05-31T05:44:58.908Z,1010.22
2018-05-31T05:45:58.932Z,1010.20
2018-05-31T05:46:59.003Z,1010.22
2018-05-31T05:47:58.983Z,1010.23
2018-05-31T05:48:59.026Z,1010.25
2018-05-31T05:49:59.037Z,1010.30
2018-05-31T05:50:59.064Z,1010.24
2018-05-31T05:51:59.087Z,1010.27
2018-05-31T05:52:59.113Z,1010.27
2018-05-31T05:53:59.139Z,1010.34
2018-05-31T05:54:59.165Z,1010.28
2018-05-31T05:55:59.204Z,1010.31
2018-05-31T05:56:59.217Z,1010.29
2018-05-31T05:57:59.243Z,1010.33
2018-05-31T05:58:59.270Z,1010.34
2018-05-31T05:59:59.295Z,1010.31
2018-05-31T06:00:59.321Z,1010.36
2018-05-31T06:01:59.359Z,1010.34
2018-05-31T06:02:59.373Z,1010.33
2018-05-31T06:03:59.399Z,1010.34
2018-05-31T06:04:59.425Z,1010.38
2018-05-31T06:05:59.452Z,1010.40
2018-05-31T06:06:59.489Z,1010.41
2018-05-31T06:07:59.503Z,1010.40
2018-05-31T06:08:59.542Z,1010.45
2018-05-31T06:09:59.601Z,1010.41
2018-05-31T06:10:59.600Z,1010.44
2018-05-31T06:11:59.623Z,1010.40
2018-05-31T06:12:59.645Z,1010.45
2018-05-31T06:13:59.670Z,1010.42
2018-05-31T06:14:59.697Z,1010.42
2018-05-31T06:15:59.724Z,1010.43
2018-05-31T06:16:59.753Z,1010.52
2018-05-31T06:17:59.775Z,1010.49
2018-05-31T06:18:59.801Z,1010.54
2018-05-31T06:19:59.834Z,1010.52
2018-05-31T06:20:59.853Z,1010.55
2018-05-31T06:21:59.930Z,1010.50
2018-05-31T06:22:59.916Z,1010.47
2018-05-31T06:23:59.943Z,1010.45
2018-05-31T06:24:59.981Z,1010.41
2018-05-31T06:25:59.995Z,1010.43
2018-05-31T06:27:00.020Z,1010.40
2018-05-31T06:28:00.047Z,1010.43
2018-05-31T06:29:00.084Z,1010.48
2018-05-31T06:30:00.111Z,1010.46
2018-05-31T06:31:00.137Z,1010.44
2018-05-31T06:32:00.164Z,1010.48
2018-05-31T06:33:00.201Z,1010.48
2018-05-31T06:34:00.227Z,1010.51
2018-05-31T06:35:00.254Z,1010.53
2018-05-31T06:36:00.279Z,1010.57
2018-05-31T06:37:00.318Z,1010.56
2018-05-31T06:38:00.343Z,1010.55
2018-05-31T06:39:00.370Z,1010.58
2018-05-31T06:40:00.399Z,1010.58
2018-05-31T06:41:00.434Z,1010.56
2018-05-31T06:42:00.461Z,1010.56
2018-05-31T06:43:00.552Z,1010.52
2018-05-31T06:44:00.530Z,1010.52
2018-05-31T06:45:00.549Z,1010.53
2018-05-31T06:46:00.588Z,1010.53
2018-05-31T06:47:00.627Z,1010.49
2018-05-31T06:48:00.653Z,1010.49
2018-05-31T06:49:00.679Z,1010.51
2018-05-31T06:50:00.716Z,1010.51
2018-05-31T06:51:00.742Z,1010.49
2018-05-31T06:52:00.781Z,1010.48
2018-05-31T06:53:00.807Z,1010.47
2018-05-31T06:54:00.859Z,1010.49
2018-05-31T06:55:00.871Z,1010.49
2018-05-31T06:56:00.909Z,1010.51
2018-05-31T06:57:00.947Z,1010.53
2018-05-31T06:58:00.975Z,1010.53
2018-05-31T06:59:01.016Z,1010.51
2018-05-31T07:00:01.043Z,1010.49
2018-05-31T07:01:01.075Z,1010.55
2018-05-31T07:02:01.115Z,1010.50
2018-05-31T07:03:01.141Z,1010.50
2018-05-31T07:04:01.181Z,1010.50
2018-05-31T07:05:01.218Z,1010.54
2018-05-31T07:06:01.245Z,1010.55
2018-05-31T07:07:01.282Z,1010.59
2018-05-31T07:08:01.320Z,1010.54
2018-05-31T07:09:01.347Z,1010.59
2018-05-31T07:10:01.386Z,1010.57
2018-05-31T07:11:01.425Z,1010.58
2018-05-31T07:12:01.463Z,1010.63
2018-05-31T07:13:01.486Z,1010.61
2018-05-31T07:14:01.527Z,1010.63
2018-05-31T07:15:01.564Z,1010.62
2018-05-31T07:16:01.603Z,1010.62
2018-05-31T07:17:01.641Z,1010.60
2018-05-31T07:18:01.670Z,1010.58
2018-05-31T07:19:01.707Z,1010.55
2018-05-31T07:20:01.761Z,1010.53
2018-05-31T07:21:01.784Z,1010.55
2018-05-31T07:22:01.821Z,1010.55
2018-05-31T07:23:01.848Z,1010.57
2018-05-31T07:24:01.897Z,1010.56
2018-05-31T07:25:01.936Z,1010.59
2018-05-31T07:26:01.963Z,1010.58
2018-05-31T07:27:02.002Z,1010.59
2018-05-31T07:28:02.040Z,1010.57
2018-05-31T07:29:02.094Z,1010.60
2018-05-31T07:30:02.121Z,1010.60
2018-05-31T07:31:02.183Z,1010.60
2018-05-31T07:32:02.180Z,1010.58
2018-05-31T07:33:02.220Z,1010.58
2018-05-31T07:34:02.258Z,1010.61
2018-05-31T07:35:02.297Z,1010.63
2018-05-31T07:36:02.346Z,1010.61
2018-05-31T07:37:02.373Z,1010.61
2018-05-31T07:38:02.423Z,1010.62
2018-05-31T07:39:02.450Z,1010.57
2018-05-31T07:40:02.488Z,1010.63
2018-05-31T07:41:02.527Z,1010.64
2018-05-31T07:42:02.563Z,1010.56
2018-05-31T07:43:02.604Z,1010.60
2018-05-31T07:44:02.641Z,1010.63
2018-05-31T07:45:02.682Z,1010.62
2018-05-31T07:46:02.718Z,1010.58
2018-05-31T07:47:02.757Z,1010.61
2018-05-31T07:48:02.794Z,1010.62
2018-05-31T07:49:02.833Z,1010.62
2018-05-31T07:50:02.872Z,1010.65
2018-05-31T07:51:02.910Z,1010.66
2018-05-31T07:52:02.949Z,1010.67
2018-05-31T07:53:02.988Z,1010.65
2018-05-31T07:54:03.025Z,1010.67
2018-05-31T07:55:03.064Z,1010.71
2018-05-31T07:56:03.103Z,1010.70
2018-05-31T07:57:03.140Z,1010.65
2018-05-31T07:58:03.255Z,1010.70
2018-05-31T07:59:03.230Z,1010.65
2018-05-31T08:00:03.268Z,1010.67
2018-05-31T08:01:03.310Z,1010.67
2018-05-31T08:02:03.344Z,1010.67
2018-05-31T08:03:03.384Z,1010.69
2018-05-31T08:04:03.422Z,1010.72
2018-05-31T08:05:03.460Z,1010.68
2018-05-31T08:06:03.499Z,1010.70
2018-05-31T08:07:03.537Z,1010.68
2018-05-31T08:08:03.575Z,1010.72
2018-05-31T08:09:03.615Z,1010.71
2018-05-31T08:10:03.667Z,1010.68
2018-05-31T08:11:03.703Z,1010.65
2018-05-31T08:12:03.744Z,1010.74
2018-05-31T08:13:03.780Z,1010.71
2018-05-31T08:14:03.818Z,1010.73
2018-05-31T08:15:03.859Z,1010.75
2018-05-31T08:16:03.896Z,1010.72
2018-05-31T08:17:03.946Z,1010.73
2018-05-31T08:18:03.985Z,1010.72
2018-05-31T08:19:04.023Z,1010.71
2018-05-31T08:20:04.062Z,1010.75
2018-05-31T08:21:04.100Z,1010.72
2018-05-31T08:22:04.150Z,1010.75
2018-05-31T08:23:04.190Z,1010.76
2018-05-31T08:24:04.228Z,1010.75
2018-05-31T08:25:04.266Z,1010.75
2018-05-31T08:26:04.305Z,1010.77
2018-05-31T08:27:04.357Z,1010.79
2018-05-31T08:28:04.395Z,1010.78
2018-05-31T08:29:04.445Z,1010.74
2018-05-31T08:30:04.472Z,1010.78
2018-05-31T08:31:04.510Z,1010.79
2018-05-31T08:32:04.565Z,1010.79
2018-05-31T08:33:04.599Z,1010.77
2018-05-31T08:34:04.638Z,1010.80
2018-05-31T08:35:04.676Z,1010.80
2018-05-31T08:36:04.727Z,1010.77
2018-05-31T08:37:04.780Z,1010.78
2018-05-31T08:38:04.804Z,1010.80
2018-05-31T08:39:04.842Z,1010.73
2018-05-31T08:40:04.892Z,1010.74
2018-05-31T08:41:04.932Z,1010.73
2018-05-31T08:42:04.969Z,1010.74
2018-05-31T08:43:05.009Z,1010.72
2018-05-31T08:44:05.111Z,1010.76
2018-05-31T08:45:05.097Z,1010.76
2018-05-31T08:46:05.137Z,1010.73
2018-05-31T08:47:05.188Z,1010.78
2018-05-31T08:48:05.225Z,1010.76
2018-05-31T08:49:05.265Z,1010.78
2018-05-31T08:50:05.304Z,1010.75
2018-05-31T08:51:05.383Z,1010.77
2018-05-31T08:52:05.391Z,1010.79
2018-05-31T08:53:05.434Z,1010.83
2018-05-31T08:54:05.485Z,1010.79
2018-05-31T08:55:05.519Z,1010.81
2018-05-31T08:56:05.557Z,1010.84
2018-05-31T08:57:05.622Z,1010.84
2018-05-31T08:58:05.650Z,1010.85
2018-05-31T08:59:05.686Z,1010.84
2018-05-31T09:00:05.737Z,1010.82
2018-05-31T09:01:05.775Z,1010.79
2018-05-31T09:02:05.814Z,1010.80
2018-05-31T09:03:05.868Z,1010.82
2018-05-31T09:04:05.904Z,1010.82
2018-05-31T09:05:05.954Z,1010.80
2018-05-31T09:06:05.991Z,1010.80
2018-05-31T09:07:06.031Z,1010.80
2018-05-31T09:08:06.081Z,1010.83
2018-05-31T09:09:06.124Z,1010.76
2018-05-31T09:10:06.158Z,1010.74
2018-05-31T09:11:06.210Z,1010.75
2018-05-31T09:12:06.250Z,1010.68
2018-05-31T09:13:06.287Z,1010.68
2018-05-31T09:14:06.337Z,1010.66
2018-05-31T09:15:06.387Z,1010.69
2018-05-31T09:16:06.427Z,1010.71
2018-05-31T09:17:06.466Z,1010.65
2018-05-31T09:18:06.502Z,1010.64
2018-05-31T09:19:06.555Z,1010.62
2018-05-31T09:20:06.593Z,1010.60
2018-05-31T09:21:06.645Z,1010.61
2018-05-31T09:22:06.682Z,1010.62
2018-05-31T09:23:06.721Z,1010.58
2018-05-31T09:24:06.772Z,1010.62
2018-05-31T09:25:06.809Z,1010.58
2018-05-31T09:26:06.859Z,1010.62
2018-05-31T09:27:06.899Z,1010.63
2018-05-31T09:28:06.937Z,1010.61
2018-05-31T09:29:06.988Z,1010.59
2018-05-31T09:30:07.026Z,1010.63
2018-05-31T09:31:07.079Z,1010.61
2018-05-31T09:32:07.115Z,1010.55
2018-05-31T09:33:07.166Z,1010.53
2018-05-31T09:34:07.205Z,1010.57
2018-05-31T09:35:07.273Z,1010.56
2018-05-31T09:36:07.294Z,1010.55
2018-05-31T09:37:07.333Z,1010.55
2018-05-31T09:38:07.385Z,1010.61
2018-05-31T09:39:07.422Z,1010.52
2018-05-31T09:40:07.472Z,1010.54
2018-05-31T09:41:07.539Z,1010.52
2018-05-31T09:42:07.562Z,1010.54
2018-05-31T09:43:07.600Z,1010.54
2018-05-31T09:44:07.639Z,1010.50
2018-05-31T09:45:07.694Z,1010.56
2018-05-31T09:46:07.730Z,1010.48
2018-05-31T09:47:07.778Z,1010.55
2018-05-31T09:48:07.818Z,1010.53
2018-05-31T09:49:07.868Z,1010.48
2018-05-31T09:50:07.919Z,1010.49
2018-05-31T09:51:07.968Z,1010.50
2018-05-31T09:52:07.997Z,1010.51
2018-05-31T09:53:08.047Z,1010.50
2018-05-31T09:54:08.085Z,1010.52
2018-05-31T09:55:08.137Z,1010.48
2018-05-31T09:56:08.176Z,1010.51
2018-05-31T09:57:08.232Z,1010.48
2018-05-31T09:58:08.315Z,1010.48
2018-05-31T10:00:08.355Z,1010.47
2018-05-31T10:01:08.404Z,1010.49
2018-05-31T10:02:08.443Z,1010.46
2018-05-31T10:03:08.494Z,1010.47
2018-05-31T10:04:08.532Z,1010.43
2018-05-31T10:05:08.583Z,1010.44
2018-05-31T10:06:08.621Z,1010.47
2018-05-31T10:07:08.673Z,1010.45
2018-05-31T10:08:08.914Z,1010.42
2018-05-31T10:09:08.762Z,1010.42
2018-05-31T10:10:08.799Z,1010.41
2018-05-31T10:11:08.851Z,1010.48
2018-05-31T10:12:08.898Z,1010.36
2018-05-31T10:13:08.941Z,1010.39
2018-05-31T10:15:09.032Z,1010.37
2018-05-31T10:16:09.072Z,1010.38
2018-05-31T10:17:09.157Z,1010.34
2018-05-31T10:18:09.157Z,1010.34
2018-05-31T10:19:09.208Z,1010.35
2018-05-31T10:20:09.258Z,1010.33
2018-05-31T10:21:09.298Z,1010.35
2018-05-31T10:22:09.353Z,1010.34
2018-05-31T10:23:09.387Z,1010.33
2018-05-31T10:24:09.438Z,1010.33
2018-05-31T10:25:09.480Z,1010.30
2018-05-31T10:26:09.529Z,1010.28
2018-05-31T10:27:09.565Z,1010.24
2018-05-31T10:28:09.616Z,1010.21
2018-05-31T10:29:09.661Z,1010.17
2018-05-31T10:30:09.765Z,1010.15
2018-05-31T10:31:09.757Z,1010.19
2018-05-31T10:32:09.799Z,1010.17
2018-05-31T10:33:09.846Z,1010.19
2018-05-31T10:34:09.887Z,1010.13
2018-05-31T10:35:09.936Z,1010.18
2018-05-31T10:36:09.987Z,1010.17
2018-05-31T10:37:10.025Z,1010.12
2018-05-31T10:38:10.080Z,1010.12
2018-05-31T10:40:10.166Z,1010.11
2018-05-31T10:41:10.221Z,1010.06
2018-05-31T10:42:10.255Z,1010.09
2018-05-31T10:43:10.305Z,1010.03
2018-05-31T10:45:10.396Z,1010.11
2018-05-31T10:46:10.447Z,1010.10
2018-05-31T10:47:10.486Z,1010.06
2018-05-31T10:48:10.535Z,1010.08
2018-05-31T10:49:10.586Z,1010.09
2018-05-31T10:50:10.638Z,1010.05
2018-05-31T10:52:10.727Z,1010.08
2018-05-31T10:53:10.765Z,1009.98
2018-05-31T10:54:10.818Z,1009.97
2018-05-31T10:56:10.905Z,1009.95
2018-05-31T10:57:10.960Z,1009.90
2018-05-31T10:58:11.008Z,1009.93
2018-05-31T10:59:11.055Z,1009.93
2018-05-31T11:00:11.096Z,1009.90
2018-05-31T11:01:11.148Z,1009.91
2018-05-31T11:02:11.198Z,1009.97
2018-05-31T11:03:11.238Z,1009.93
2018-05-31T11:04:11.293Z,1009.98
2018-05-31T11:05:11.339Z,1009.90
2018-05-31T11:06:11.377Z,1009.93
2018-05-31T11:07:11.431Z,1009.91
2018-05-31T11:08:11.479Z,1009.96
2018-05-31T11:09:11.743Z,1010.00
2018-05-31T11:10:11.569Z,1010.03
2018-05-31T11:11:11.627Z,1009.96
2018-05-31T11:12:11.670Z,1009.97
2018-05-31T11:13:11.721Z,1009.94
2018-05-31T11:14:11.760Z,1009.94
2018-05-31T11:15:11.811Z,1009.94
2018-05-31T11:16:11.850Z,1009.86
2018-05-31T11:17:11.908Z,1009.87
2018-05-31T11:18:11.952Z,1009.91
2018-05-31T11:19:12.203Z,1009.94
2018-05-31T11:20:12.052Z,1009.93
2018-05-31T11:21:12.091Z,1009.87
2018-05-31T11:22:12.145Z,1009.86
2018-05-31T11:23:12.180Z,1009.91
2018-05-31T11:24:12.232Z,1009.84
2018-05-31T11:25:12.284Z,1009.76
2018-05-31T11:26:12.321Z,1009.87
2018-05-31T11:27:12.372Z,1009.91
2018-05-31T11:28:12.627Z,1009.90
2018-05-31T11:29:12.494Z,1009.87
2018-05-31T11:30:12.512Z,1009.88
2018-05-31T11:31:12.565Z,1009.89
2018-05-31T11:32:12.601Z,1009.88
2018-05-31T11:33:12.652Z,1009.84
2018-05-31T11:34:12.702Z,1009.79
2018-05-31T11:35:12.741Z,1009.80
2018-05-31T11:36:12.794Z,1009.84
2018-05-31T11:37:12.832Z,1009.78
2018-05-31T11:38:12.881Z,1009.66
2018-05-31T11:39:12.932Z,1009.66
2018-05-31T11:40:12.973Z,1009.66
2018-05-31T11:41:13.026Z,1009.69
2018-05-31T11:42:13.073Z,1009.65
2018-05-31T11:43:13.112Z,1009.59
2018-05-31T11:44:13.162Z,1009.65
2018-05-31T11:45:13.209Z,1009.68
2018-05-31T11:46:13.241Z,1009.80
2018-05-31T11:47:13.292Z,1009.76
2018-05-31T11:48:13.329Z,1009.78
2018-05-31T11:49:13.380Z,1009.77
2018-05-31T11:50:13.430Z,1009.75
2018-05-31T11:51:13.468Z,1009.72
2018-05-31T11:52:13.508Z,1009.71
2018-05-31T11:53:13.548Z,1009.66
2018-05-31T11:54:13.597Z,1009.66
2018-05-31T11:55:13.638Z,1009.61
2018-05-31T11:56:13.687Z,1009.56
2018-05-31T11:57:13.726Z,1009.57
2018-05-31T11:58:13.774Z,1009.52
2018-05-31T11:59:13.814Z,1009.50
2018-05-31T12:00:13.853Z,1009.52
2018-05-31T12:01:13.902Z,1009.51
2018-05-31T12:02:13.941Z,1009.54
2018-05-31T12:03:13.993Z,1009.50
2018-05-31T12:04:14.030Z,1009.47
2018-05-31T12:05:14.081Z,1009.50
2018-05-31T12:06:14.131Z,1009.50
2018-05-31T12:07:14.171Z,1009.48
2018-05-31T12:08:14.256Z,1009.54
2018-05-31T12:09:14.261Z,1009.48
2018-05-31T12:10:14.311Z,1009.49
2018-05-31T12:11:14.351Z,1009.50
2018-05-31T12:12:14.415Z,1009.44